Un Akdeniz — TCTD2 — position and weather

sailwx.info

Track history (hours):
 
Tides and Currents Weather Stations Pressure Air Temp Water Temp Dewpoint Dewpoint Depression Visibility Wind Speed Wind Dir Waves Ship Positions

Un Akdeniz

Last reported at 2018-Apr-17 06:03 UTC. Time now 2018-Apr-20 16:44 UTC.
Position N 44°07' E 014°03'.

Length 223 m; draft 6 m.

Type: Ship (hazmat cat A). MMSI: 271002572.

Date/timePositionNaut miles runAvg speedWind from/ knotsBaromVisibWave heightAir tempDewpointWater temp
2018-Apr-17 06:03N 44°07' E 014°03'219.7
2018-Apr-17 05:56N 44°09' E 014°01'919.8
2018-Apr-17 05:30N 44°16' E 013°54'1019.9
2018-Apr-17 05:00N 44°24' E 013°47'1019.9
2018-Apr-17 04:31N 44°32' E 013°38'1020.0
2018-Apr-17 04:01N 44°40' E 013°30'1020.0
2018-Apr-17 03:31N 44°48' E 013°22'1019.9
2018-Apr-17 03:01N 44°57' E 013°15'1019.5
2018-Apr-17 02:31N 45°04' E 013°06'1019.0
2018-Apr-17 02:01N 45°14' E 013°03'1019.9
2018-Apr-17 01:30N 45°23' E 013°05'1020.0
2018-Apr-17 01:00N 45°30' E 013°15'1019.7
2018-Apr-17 00:30N 45°36' E 013°27'1019.5
2018-Apr-17 00:01N 45°39' E 013°40'4 7.3
2018-Apr-16 23:30N 45°39' E 013°45'0 0.0
2018-Apr-16 23:00N 45°39' E 013°45'0 0.0
2018-Apr-16 22:31N 45°39' E 013°45'0 0.0
2018-Apr-16 22:00N 45°39' E 013°45'0 0.0
2018-Apr-16 21:30N 45°39' E 013°45'0 0.0
2018-Apr-16 21:00N 45°39' E 013°45'0 0.0
2018-Apr-16 20:30N 45°39' E 013°45'0 0.0
2018-Apr-16 20:00N 45°39' E 013°45'0 0.0
2018-Apr-16 19:30N 45°39' E 013°45'0 0.0
2018-Apr-16 19:00N 45°39' E 013°45'0 0.0
2018-Apr-16 18:30N 45°39' E 013°45'0 0.0
2018-Apr-16 17:59N 45°39' E 013°45'0 0.0
2018-Apr-16 17:30N 45°39' E 013°45'0 0.0
2018-Apr-16 17:00N 45°39' E 013°45'0 0.0
2018-Apr-16 16:30N 45°39' E 013°45'0 0.0
2018-Apr-16 16:00N 45°39' E 013°45'0 0.0
2018-Apr-16 15:30N 45°39' E 013°45'0 0.0
2018-Apr-16 14:57N 45°39' E 013°45'0 0.0
2018-Apr-16 14:30N 45°39' E 013°45'0 0.0
2018-Apr-16 13:59N 45°39' E 013°45'0 0.0
2018-Apr-16 13:30N 45°39' E 013°45'0 0.0
2018-Apr-16 13:00N 45°39' E 013°45'0 0.0
2018-Apr-16 12:28N 45°39' E 013°45'0 0.0
2018-Apr-16 12:00N 45°39' E 013°45'3 5.6
2018-Apr-16 11:30N 45°39' E 013°41'1019.6
2018-Apr-16 11:00N 45°34' E 013°29'1019.5
2018-Apr-16 10:30N 45°27' E 013°19'918.1
2018-Apr-16 10:00N 45°19' E 013°14'1020.0
2018-Apr-16 09:30N 45°09' E 013°18'1019.9
2018-Apr-16 09:00N 44°60' E 013°23'1019.9
2018-Apr-16 08:30N 44°51' E 013°30'1020.0
2018-Apr-16 08:00N 44°42' E 013°37'1020.0
2018-Apr-16 07:30N 44°34' E 013°44'1120.2
2018-Apr-16 06:57N 44°24' E 013°52'60013.5
2018-Apr-14 10:33N 39°51' E 025°52'820.3
2018-Apr-14 10:11N 39°58' E 025°57'62 1.5
2018-Apr-12 16:25N 40°32' E 027°04'1018.7
2018-Apr-12 15:52N 40°28' E 026°51'3813.3
2018-Apr-12 13:00N 40°02' E 026°15'714.4
2018-Apr-12 12:30N 39°59' E 026°06'612.6
2018-Apr-12 12:00N 39°55' E 025°60'2 3.6
2018-Apr-12 11:26N 39°54' E 025°58'510.9
2018-Apr-12 11:00N 39°51' E 025°54'55813.9
2018-Apr-10 18:52N 39°18' E 013°51'718.9
2018-Apr-10 18:30N 39°22' E 013°43'1019.0
2018-Apr-10 18:00N 39°27' E 013°33'40518.9
2018-Apr-09 20:32N 43°04' E 005°58'011.5
2018-Apr-09 20:30N 43°05' E 005°58'4 7.2
2018-Apr-09 20:00N 43°06' E 005°54'0 0.1
2018-Apr-09 19:30N 43°06' E 005°54'0 0.0
2018-Apr-09 19:00N 43°06' E 005°54'0 0.0
2018-Apr-09 18:30N 43°06' E 005°54'0 0.0
2018-Apr-09 18:00N 43°06' E 005°54'0 0.0
2018-Apr-09 17:30N 43°06' E 005°54'0 0.0
2018-Apr-09 17:00N 43°06' E 005°54'0 0.0
2018-Apr-09 16:30N 43°06' E 005°54'0 0.0
2018-Apr-09 16:00N 43°06' E 005°54'0 0.0
2018-Apr-09 15:30N 43°06' E 005°54'0 0.0
2018-Apr-09 15:00N 43°06' E 005°54'0 0.0
2018-Apr-09 14:30N 43°06' E 005°54'0 0.0
2018-Apr-09 14:00N 43°06' E 005°54'0 0.0
2018-Apr-09 13:30N 43°06' E 005°54'0 0.0
2018-Apr-09 13:00N 43°06' E 005°54'0 0.0
2018-Apr-09 12:30N 43°06' E 005°54'0 0.0
2018-Apr-09 12:00N 43°06' E 005°54'0 0.0
2018-Apr-09 11:30N 43°06' E 005°54'0 0.0
2018-Apr-09 11:00N 43°06' E 005°54'0 0.0
2018-Apr-09 10:30N 43°06' E 005°54'0 0.0
2018-Apr-09 10:00N 43°06' E 005°54'0 0.0
2018-Apr-09 09:30N 43°06' E 005°54'0 0.0
2018-Apr-09 09:00N 43°06' E 005°54'0 0.0
2018-Apr-09 08:30N 43°06' E 005°54'0 0.0
2018-Apr-09 08:00N 43°06' E 005°54'0 0.0
2018-Apr-09 07:30N 43°06' E 005°54'0 0.0
2018-Apr-09 07:00N 43°06' E 005°54'2 3.3
2018-Apr-09 06:30N 43°05' E 005°55'50 6.1
2018-Apr-08 22:12N 43°22' E 007°01'313.1
2018-Apr-08 22:00N 43°24' E 007°03'613.2
2018-Apr-08 21:30N 43°29' E 007°09'2 3.6
2018-Apr-08 21:00N 43°30' E 007°10'4 8.7
2018-Apr-08 20:29N 43°27' E 007°07'4 8.9
2018-Apr-08 20:00N 43°23' E 007°04'5 8.9
2018-Apr-08 19:30N 43°18' E 007°03'49 6.8
2018-Apr-08 12:23N 43°04' E 005°59'3 8.7
2018-Apr-08 12:00N 43°06' E 005°55'1 2.4
2018-Apr-08 11:30N 43°06' E 005°54'2 4.7
2018-Apr-08 11:00N 43°05' E 005°57'0 0.4
2018-Apr-08 10:30N 43°05' E 005°56'19918.9
2018-Apr-07 23:56N 41°17' E 009°42'1020.1
2018-Apr-07 23:26N 41°11' E 009°53'919.8
2018-Apr-07 23:00N 41°07' E 010°03'1020.1
2018-Apr-07 22:30N 41°02' E 010°14'7420.5
2018-Apr-07 18:53N 40°24' E 011°38'7720.1
2018-Apr-07 15:03N 39°45' E 013°05'120.4
2018-Apr-07 15:00N 39°44' E 013°06'1420.3
2018-Apr-07 14:19N 39°36' E 013°21'620.4
2018-Apr-07 14:00N 39°33' E 013°28'1020.3
2018-Apr-07 13:30N 39°27' E 013°39'1020.3
2018-Apr-07 13:00N 39°22' E 013°50'  
Track history (hours):
 
Tides and Currents Weather Stations Pressure Air Temp Water Temp Dewpoint Dewpoint Depression Visibility Wind Speed Wind Dir Waves Ship Positions

Un Akdeniz

Last reported at 2018-Apr-17 06:03 UTC. Time now 2018-Apr-20 16:44 UTC.
Position N 44°07' E 014°03'.

Length 223 m; draft 6 m.

Type: Ship (hazmat cat A). MMSI: 271002572.

Date/timePositionNaut miles runAvg speedWind from/ knotsBaromVisibWave heightAir tempDewpointWater temp
2018-Apr-17 06:03N 44°07' E 014°03'219.7
2018-Apr-17 05:56N 44°09' E 014°01'919.8
2018-Apr-17 05:30N 44°16' E 013°54'1019.9
2018-Apr-17 05:00N 44°24' E 013°47'1019.9
2018-Apr-17 04:31N 44°32' E 013°38'1020.0
2018-Apr-17 04:01N 44°40' E 013°30'1020.0
2018-Apr-17 03:31N 44°48' E 013°22'1019.9
2018-Apr-17 03:01N 44°57' E 013°15'1019.5
2018-Apr-17 02:31N 45°04' E 013°06'1019.0
2018-Apr-17 02:01N 45°14' E 013°03'1019.9
2018-Apr-17 01:30N 45°23' E 013°05'1020.0
2018-Apr-17 01:00N 45°30' E 013°15'1019.7
2018-Apr-17 00:30N 45°36' E 013°27'1019.5
2018-Apr-17 00:01N 45°39' E 013°40'4 7.3
2018-Apr-16 23:30N 45°39' E 013°45'0 0.0
2018-Apr-16 23:00N 45°39' E 013°45'0 0.0
2018-Apr-16 22:31N 45°39' E 013°45'0 0.0
2018-Apr-16 22:00N 45°39' E 013°45'0 0.0
2018-Apr-16 21:30N 45°39' E 013°45'0 0.0
2018-Apr-16 21:00N 45°39' E 013°45'0 0.0
2018-Apr-16 20:30N 45°39' E 013°45'0 0.0
2018-Apr-16 20:00N 45°39' E 013°45'0 0.0
2018-Apr-16 19:30N 45°39' E 013°45'0 0.0
2018-Apr-16 19:00N 45°39' E 013°45'0 0.0
2018-Apr-16 18:30N 45°39' E 013°45'0 0.0
2018-Apr-16 17:59N 45°39' E 013°45'0 0.0
2018-Apr-16 17:30N 45°39' E 013°45'0 0.0
2018-Apr-16 17:00N 45°39' E 013°45'0 0.0
2018-Apr-16 16:30N 45°39' E 013°45'0 0.0
2018-Apr-16 16:00N 45°39' E 013°45'0 0.0
2018-Apr-16 15:30N 45°39' E 013°45'0 0.0
2018-Apr-16 14:57N 45°39' E 013°45'0 0.0
2018-Apr-16 14:30N 45°39' E 013°45'0 0.0
2018-Apr-16 13:59N 45°39' E 013°45'0 0.0
2018-Apr-16 13:30N 45°39' E 013°45'0 0.0
2018-Apr-16 13:00N 45°39' E 013°45'0 0.0
2018-Apr-16 12:28N 45°39' E 013°45'0 0.0
2018-Apr-16 12:00N 45°39' E 013°45'3 5.6
2018-Apr-16 11:30N 45°39' E 013°41'1019.6
2018-Apr-16 11:00N 45°34' E 013°29'1019.5
2018-Apr-16 10:30N 45°27' E 013°19'918.1
2018-Apr-16 10:00N 45°19' E 013°14'1020.0
2018-Apr-16 09:30N 45°09' E 013°18'1019.9
2018-Apr-16 09:00N 44°60' E 013°23'1019.9
2018-Apr-16 08:30N 44°51' E 013°30'1020.0
2018-Apr-16 08:00N 44°42' E 013°37'1020.0
2018-Apr-16 07:30N 44°34' E 013°44'1120.2
2018-Apr-16 06:57N 44°24' E 013°52'60013.5
2018-Apr-14 10:33N 39°51' E 025°52'820.3
2018-Apr-14 10:11N 39°58' E 025°57'62 1.5
2018-Apr-12 16:25N 40°32' E 027°04'1018.7
2018-Apr-12 15:52N 40°28' E 026°51'3813.3
2018-Apr-12 13:00N 40°02' E 026°15'714.4
2018-Apr-12 12:30N 39°59' E 026°06'612.6
2018-Apr-12 12:00N 39°55' E 025°60'2 3.6
2018-Apr-12 11:26N 39°54' E 025°58'510.9
2018-Apr-12 11:00N 39°51' E 025°54'55813.9
2018-Apr-10 18:52N 39°18' E 013°51'718.9
2018-Apr-10 18:30N 39°22' E 013°43'1019.0
2018-Apr-10 18:00N 39°27' E 013°33'40518.9
2018-Apr-09 20:32N 43°04' E 005°58'011.5
2018-Apr-09 20:30N 43°05' E 005°58'4 7.2
2018-Apr-09 20:00N 43°06' E 005°54'0 0.1
2018-Apr-09 19:30N 43°06' E 005°54'0 0.0
2018-Apr-09 19:00N 43°06' E 005°54'0 0.0
2018-Apr-09 18:30N 43°06' E 005°54'0 0.0
2018-Apr-09 18:00N 43°06' E 005°54'0 0.0
2018-Apr-09 17:30N 43°06' E 005°54'0 0.0
2018-Apr-09 17:00N 43°06' E 005°54'0 0.0
2018-Apr-09 16:30N 43°06' E 005°54'0 0.0
2018-Apr-09 16:00N 43°06' E 005°54'0 0.0
2018-Apr-09 15:30N 43°06' E 005°54'0 0.0
2018-Apr-09 15:00N 43°06' E 005°54'0 0.0
2018-Apr-09 14:30N 43°06' E 005°54'0 0.0
2018-Apr-09 14:00N 43°06' E 005°54'0 0.0
2018-Apr-09 13:30N 43°06' E 005°54'0 0.0
2018-Apr-09 13:00N 43°06' E 005°54'0 0.0
2018-Apr-09 12:30N 43°06' E 005°54'0 0.0
2018-Apr-09 12:00N 43°06' E 005°54'0 0.0
2018-Apr-09 11:30N 43°06' E 005°54'0 0.0
2018-Apr-09 11:00N 43°06' E 005°54'0 0.0
2018-Apr-09 10:30N 43°06' E 005°54'0 0.0
2018-Apr-09 10:00N 43°06' E 005°54'0 0.0
2018-Apr-09 09:30N 43°06' E 005°54'0 0.0
2018-Apr-09 09:00N 43°06' E 005°54'0 0.0
2018-Apr-09 08:30N 43°06' E 005°54'0 0.0
2018-Apr-09 08:00N 43°06' E 005°54'0 0.0
2018-Apr-09 07:30N 43°06' E 005°54'0 0.0
2018-Apr-09 07:00N 43°06' E 005°54'2 3.3
2018-Apr-09 06:30N 43°05' E 005°55'50 6.1
2018-Apr-08 22:12N 43°22' E 007°01'313.1
2018-Apr-08 22:00N 43°24' E 007°03'613.2
2018-Apr-08 21:30N 43°29' E 007°09'2 3.6
2018-Apr-08 21:00N 43°30' E 007°10'4 8.7
2018-Apr-08 20:29N 43°27' E 007°07'4 8.9
2018-Apr-08 20:00N 43°23' E 007°04'5 8.9
2018-Apr-08 19:30N 43°18' E 007°03'49 6.8
2018-Apr-08 12:23N 43°04' E 005°59'3 8.7
2018-Apr-08 12:00N 43°06' E 005°55'1 2.4
2018-Apr-08 11:30N 43°06' E 005°54'2 4.7
2018-Apr-08 11:00N 43°05' E 005°57'0 0.4
2018-Apr-08 10:30N 43°05' E 005°56'19918.9
2018-Apr-07 23:56N 41°17' E 009°42'1020.1
2018-Apr-07 23:26N 41°11' E 009°53'919.8
2018-Apr-07 23:00N 41°07' E 010°03'1020.1
2018-Apr-07 22:30N 41°02' E 010°14'7420.5
2018-Apr-07 18:53N 40°24' E 011°38'7720.1
2018-Apr-07 15:03N 39°45' E 013°05'120.4
2018-Apr-07 15:00N 39°44' E 013°06'1420.3
2018-Apr-07 14:19N 39°36' E 013°21'620.4
2018-Apr-07 14:00N 39°33' E 013°28'1020.3
2018-Apr-07 13:30N 39°27' E 013°39'1020.3
2018-Apr-07 13:00N 39°22' E 013°50'  

Dump ship's entire track history